sensor_id;sensor_type;location;lat;lon;timestamp;pressure;altitude;pressure_sealevel;temperature;humidity
20987;BME280;10652;50.306;8.570;2023-05-21T00:03:12;97915.13;;;12.73;100.00
20987;BME280;10652;50.306;8.570;2023-05-21T00:07:17;97908.84;;;12.75;100.00
20987;BME280;10652;50.306;8.570;2023-05-21T00:11:19;97908.84;;;12.75;100.00
20987;BME280;10652;50.306;8.570;2023-05-21T00:15:21;97911.50;;;12.75;100.00
20987;BME280;10652;50.306;8.570;2023-05-21T00:19:23;97909.59;;;12.77;100.00
20987;BME280;10652;50.306;8.570;2023-05-21T00:23:26;97908.66;;;12.78;100.00
20987;BME280;10652;50.306;8.570;2023-05-21T00:27:28;97900.84;;;12.77;100.00
20987;BME280;10652;50.306;8.570;2023-05-21T00:31:30;97899.25;;;12.74;100.00
20987;BME280;10652;50.306;8.570;2023-05-21T00:35:33;97892.44;;;12.70;100.00
20987;BME280;10652;50.306;8.570;2023-05-21T00:39:35;97885.66;;;12.66;100.00
20987;BME280;10652;50.306;8.570;2023-05-21T00:43:38;97884.72;;;12.67;100.00
20987;BME280;10652;50.306;8.570;2023-05-21T00:47:44;97882.19;;;12.65;100.00
20987;BME280;10652;50.306;8.570;2023-05-21T00:51:47;97888.56;;;12.61;100.00
20987;BME280;10652;50.306;8.570;2023-05-21T00:55:49;97880.66;;;12.61;100.00
20987;BME280;10652;50.306;8.570;2023-05-21T00:59:52;97874.53;;;12.61;100.00
20987;BME280;10652;50.306;8.570;2023-05-21T01:03:54;97873.19;;;12.54;100.00
20987;BME280;10652;50.306;8.570;2023-05-21T01:07:59;97867.16;;;12.52;100.00
20987;BME280;10652;50.306;8.570;2023-05-21T01:12:01;97868.88;;;12.53;100.00
20987;BME280;10652;50.306;8.570;2023-05-21T01:16:04;97860.00;;;12.54;100.00
20987;BME280;10652;50.306;8.570;2023-05-21T01:20:07;97863.41;;;12.56;100.00
20987;BME280;10652;50.306;8.570;2023-05-21T01:24:12;97857.38;;;12.54;100.00
20987;BME280;10652;50.306;8.570;2023-05-21T01:28:14;97857.47;;;12.52;100.00
20987;BME280;10652;50.306;8.570;2023-05-21T01:36:24;97850.00;;;12.45;100.00
20987;BME280;10652;50.306;8.570;2023-05-21T01:44:41;97847.28;;;12.31;100.00
20987;BME280;10652;50.306;8.570;2023-05-21T01:48:44;97849.06;;;12.30;100.00
20987;BME280;10652;50.306;8.570;2023-05-21T01:52:48;97840.59;;;12.25;100.00
20987;BME280;10652;50.306;8.570;2023-05-21T01:56:51;97835.91;;;12.14;100.00
20987;BME280;10652;50.306;8.570;2023-05-21T02:00:54;97843.59;;;12.03;100.00
20987;BME280;10652;50.306;8.570;2023-05-21T02:04:59;97845.19;;;11.90;100.00
20987;BME280;10652;50.306;8.570;2023-05-21T02:09:01;97845.53;;;11.84;100.00
20987;BME280;10652;50.306;8.570;2023-05-21T02:13:04;97830.16;;;11.76;100.00
20987;BME280;10652;50.306;8.570;2023-05-21T02:17:06;97827.44;;;11.78;100.00
20987;BME280;10652;50.306;8.570;2023-05-21T02:21:09;97833.22;;;11.69;100.00
20987;BME280;10652;50.306;8.570;2023-05-21T02:25:17;97825.75;;;11.61;100.00
20987;BME280;10652;50.306;8.570;2023-05-21T02:29:20;97833.53;;;11.63;100.00
20987;BME280;10652;50.306;8.570;2023-05-21T02:33:22;97827.59;;;11.59;100.00
20987;BME280;10652;50.306;8.570;2023-05-21T02:37:25;97840.88;;;11.58;100.00
20987;BME280;10652;50.306;8.570;2023-05-21T02:41:30;97839.31;;;11.54;100.00
20987;BME280;10652;50.306;8.570;2023-05-21T02:45:32;97835.59;;;11.58;100.00
20987;BME280;10652;50.306;8.570;2023-05-21T02:49:35;97835.84;;;11.69;100.00
20987;BME280;10652;50.306;8.570;2023-05-21T02:53:37;97831.50;;;11.68;100.00
20987;BME280;10652;50.306;8.570;2023-05-21T02:57:39;97824.28;;;11.56;100.00
20987;BME280;10652;50.306;8.570;2023-05-21T03:01:41;97829.03;;;11.49;100.00
20987;BME280;10652;50.306;8.570;2023-05-21T03:05:46;97825.22;;;11.55;100.00
20987;BME280;10652;50.306;8.570;2023-05-21T03:09:49;97824.13;;;11.59;100.00
20987;BME280;10652;50.306;8.570;2023-05-21T03:13:51;97819.88;;;11.56;100.00
20987;BME280;10652;50.306;8.570;2023-05-21T03:17:53;97826.00;;;11.57;100.00
20987;BME280;10652;50.306;8.570;2023-05-21T03:21:57;97818.25;;;11.54;100.00
20987;BME280;10652;50.306;8.570;2023-05-21T03:26:00;97812.25;;;11.52;100.00
20987;BME280;10652;50.306;8.570;2023-05-21T03:30:03;97816.59;;;11.53;100.00
20987;BME280;10652;50.306;8.570;2023-05-21T03:34:13;97813.78;;;11.56;100.00
20987;BME280;10652;50.306;8.570;2023-05-21T03:38:15;97817.94;;;11.60;100.00
20987;BME280;10652;50.306;8.570;2023-05-21T03:42:18;97820.38;;;11.47;100.00
20987;BME280;10652;50.306;8.570;2023-05-21T03:46:24;97817.09;;;11.44;100.00
20987;BME280;10652;50.306;8.570;2023-05-21T03:50:46;97806.06;;;11.53;100.00
20987;BME280;10652;50.306;8.570;2023-05-21T03:54:48;97815.31;;;11.60;100.00
20987;BME280;10652;50.306;8.570;2023-05-21T03:58:50;97823.88;;;11.63;100.00
20987;BME280;10652;50.306;8.570;2023-05-21T04:02:53;97810.63;;;11.65;100.00
20987;BME280;10652;50.306;8.570;2023-05-21T04:06:55;97809.78;;;11.64;100.00
20987;BME280;10652;50.306;8.570;2023-05-21T04:10:57;97815.13;;;11.63;100.00
20987;BME280;10652;50.306;8.570;2023-05-21T04:15:00;97818.28;;;11.69;100.00
20987;BME280;10652;50.306;8.570;2023-05-21T04:19:04;97821.25;;;11.79;100.00
20987;BME280;10652;50.306;8.570;2023-05-21T04:23:07;97825.06;;;11.73;100.00
20987;BME280;10652;50.306;8.570;2023-05-21T04:27:09;97817.44;;;11.69;100.00
20987;BME280;10652;50.306;8.570;2023-05-21T04:31:11;97825.91;;;11.74;100.00
20987;BME280;10652;50.306;8.570;2023-05-21T04:35:14;97825.41;;;11.83;100.00
20987;BME280;10652;50.306;8.570;2023-05-21T04:39:17;97829.84;;;11.98;100.00
20987;BME280;10652;50.306;8.570;2023-05-21T04:43:19;97835.25;;;12.11;100.00
20987;BME280;10652;50.306;8.570;2023-05-21T04:47:29;97836.59;;;12.18;100.00
20987;BME280;10652;50.306;8.570;2023-05-21T04:51:37;97829.78;;;12.30;100.00
20987;BME280;10652;50.306;8.570;2023-05-21T04:55:39;97828.75;;;12.48;100.00
20987;BME280;10652;50.306;8.570;2023-05-21T04:59:42;97827.84;;;12.63;100.00
20987;BME280;10652;50.306;8.570;2023-05-21T05:03:45;97833.06;;;12.79;100.00
20987;BME280;10652;50.306;8.570;2023-05-21T05:07:47;97835.25;;;12.86;100.00
20987;BME280;10652;50.306;8.570;2023-05-21T05:11:50;97832.06;;;13.09;100.00
20987;BME280;10652;50.306;8.570;2023-05-21T05:15:52;97831.91;;;13.41;100.00
20987;BME280;10652;50.306;8.570;2023-05-21T05:19:56;97827.41;;;13.71;100.00
20987;BME280;10652;50.306;8.570;2023-05-21T05:23:58;97822.59;;;14.05;100.00
20987;BME280;10652;50.306;8.570;2023-05-21T05:28:03;97819.63;;;14.36;100.00
20987;BME280;10652;50.306;8.570;2023-05-21T05:32:05;97824.09;;;14.62;98.46
20987;BME280;10652;50.306;8.570;2023-05-21T05:36:08;97822.47;;;15.12;96.19
20987;BME280;10652;50.306;8.570;2023-05-21T05:40:11;97825.09;;;16.46;92.08
20987;BME280;10652;50.306;8.570;2023-05-21T05:44:13;97825.72;;;16.74;83.46
20987;BME280;10652;50.306;8.570;2023-05-21T05:48:17;97823.88;;;16.39;80.96
20987;BME280;10652;50.306;8.570;2023-05-21T05:52:20;97816.44;;;16.20;81.96
20987;BME280;10652;50.306;8.570;2023-05-21T05:56:22;97825.25;;;16.08;80.89
20987;BME280;10652;50.306;8.570;2023-05-21T06:00:24;97826.13;;;16.09;82.27
20987;BME280;10652;50.306;8.570;2023-05-21T06:04:27;97830.66;;;16.43;80.35
20987;BME280;10652;50.306;8.570;2023-05-21T06:08:30;97825.09;;;17.05;78.80
20987;BME280;10652;50.306;8.570;2023-05-21T06:12:38;97824.03;;;17.19;75.27
20987;BME280;10652;50.306;8.570;2023-05-21T06:16:41;97825.91;;;17.51;74.53
20987;BME280;10652;50.306;8.570;2023-05-21T06:20:43;97828.47;;;18.18;72.35
20987;BME280;10652;50.306;8.570;2023-05-21T06:24:46;97831.09;;;20.26;69.21
20987;BME280;10652;50.306;8.570;2023-05-21T06:28:49;97818.13;;;22.91;58.74
20987;BME280;10652;50.306;8.570;2023-05-21T06:32:51;97827.59;;;24.48;50.94
20987;BME280;10652;50.306;8.570;2023-05-21T06:36:53;97819.00;;;25.74;47.50
20987;BME280;10652;50.306;8.570;2023-05-21T06:40:56;97811.59;;;26.99;42.95
20987;BME280;10652;50.306;8.570;2023-05-21T06:45:16;97803.84;;;26.82;41.82
20987;BME280;10652;50.306;8.570;2023-05-21T06:49:19;97809.34;;;25.96;43.16
20987;BME280;10652;50.306;8.570;2023-05-21T06:53:22;97804.91;;;24.67;44.55
20987;BME280;10652;50.306;8.570;2023-05-21T06:57:24;97806.25;;;23.96;45.67
20987;BME280;10652;50.306;8.570;2023-05-21T07:01:26;97812.06;;;23.06;48.11
20987;BME280;10652;50.306;8.570;2023-05-21T07:05:29;97809.34;;;23.76;48.64
20987;BME280;10652;50.306;8.570;2023-05-21T07:09:31;97815.13;;;22.58;48.97
20987;BME280;10652;50.306;8.570;2023-05-21T07:13:34;97807.75;;;21.14;52.36
20987;BME280;10652;50.306;8.570;2023-05-21T07:17:37;97801.84;;;19.74;57.39
20987;BME280;10652;50.306;8.570;2023-05-21T07:21:40;97807.75;;;19.17;61.36
20987;BME280;10652;50.306;8.570;2023-05-21T07:25:42;97817.41;;;18.98;63.38
20987;BME280;10652;50.306;8.570;2023-05-21T07:29:44;97807.94;;;18.84;64.65
20987;BME280;10652;50.306;8.570;2023-05-21T07:33:48;97802.19;;;18.68;65.78
20987;BME280;10652;50.306;8.570;2023-05-21T07:37:52;97809.41;;;18.56;67.14
20987;BME280;10652;50.306;8.570;2023-05-21T07:41:54;97800.56;;;18.76;67.74
20987;BME280;10652;50.306;8.570;2023-05-21T07:45:57;97799.09;;;19.04;66.35
20987;BME280;10652;50.306;8.570;2023-05-21T07:50:00;97799.63;;;18.98;64.80
20987;BME280;10652;50.306;8.570;2023-05-21T07:54:02;97803.69;;;18.61;67.73
20987;BME280;10652;50.306;8.570;2023-05-21T07:58:09;97797.94;;;18.45;69.14
20987;BME280;10652;50.306;8.570;2023-05-21T08:02:11;97791.00;;;18.32;69.44
20987;BME280;10652;50.306;8.570;2023-05-21T08:06:14;97794.75;;;18.19;70.78
20987;BME280;10652;50.306;8.570;2023-05-21T08:10:16;97788.34;;;18.21;70.82
20987;BME280;10652;50.306;8.570;2023-05-21T08:14:22;97797.69;;;18.05;71.46
20987;BME280;10652;50.306;8.570;2023-05-21T08:18:25;97794.56;;;17.99;73.01
20987;BME280;10652;50.306;8.570;2023-05-21T08:22:30;97792.81;;;18.21;72.33
20987;BME280;10652;50.306;8.570;2023-05-21T08:26:32;97795.56;;;18.41;72.15
20987;BME280;10652;50.306;8.570;2023-05-21T08:30:34;97788.78;;;18.69;71.46
20987;BME280;10652;50.306;8.570;2023-05-21T08:34:36;97793.13;;;18.70;70.35
20987;BME280;10652;50.306;8.570;2023-05-21T08:38:53;97801.19;;;18.80;70.54
20987;BME280;10652;50.306;8.570;2023-05-21T08:43:00;97791.56;;;18.68;72.19
20987;BME280;10652;50.306;8.570;2023-05-21T08:47:20;97805.25;;;18.63;72.02
20987;BME280;10652;50.306;8.570;2023-05-21T08:51:22;97784.31;;;18.70;74.20
20987;BME280;10652;50.306;8.570;2023-05-21T08:55:26;97788.53;;;18.93;72.07
20987;BME280;10652;50.306;8.570;2023-05-21T08:59:29;97779.31;;;18.97;72.35
20987;BME280;10652;50.306;8.570;2023-05-21T09:03:31;97785.09;;;19.02;70.96
20987;BME280;10652;50.306;8.570;2023-05-21T09:08:04;97766.13;;;19.16;71.44
20987;BME280;10652;50.306;8.570;2023-05-21T09:12:18;97770.25;;;19.09;70.58
20987;BME280;10652;50.306;8.570;2023-05-21T09:16:20;97767.94;;;19.16;70.45
20987;BME280;10652;50.306;8.570;2023-05-21T09:20:25;97762.28;;;19.30;69.92
20987;BME280;10652;50.306;8.570;2023-05-21T09:24:32;97775.25;;;19.54;66.57
20987;BME280;10652;50.306;8.570;2023-05-21T09:28:38;97776.47;;;19.70;64.89
20987;BME280;10652;50.306;8.570;2023-05-21T09:32:40;97771.97;;;19.71;66.61
20987;BME280;10652;50.306;8.570;2023-05-21T09:36:43;97771.69;;;19.74;64.53
20987;BME280;10652;50.306;8.570;2023-05-21T09:40:45;97772.28;;;19.87;65.39
20987;BME280;10652;50.306;8.570;2023-05-21T09:44:47;97763.03;;;19.91;66.97
20987;BME280;10652;50.306;8.570;2023-05-21T09:48:49;97758.63;;;20.21;68.33
20987;BME280;10652;50.306;8.570;2023-05-21T09:52:53;97763.66;;;20.24;65.86
20987;BME280;10652;50.306;8.570;2023-05-21T09:56:56;97773.38;;;20.34;67.11
20987;BME280;10652;50.306;8.570;2023-05-21T10:00:58;97776.59;;;20.47;62.96
20987;BME280;10652;50.306;8.570;2023-05-21T10:05:01;97765.38;;;20.44;63.22
20987;BME280;10652;50.306;8.570;2023-05-21T10:09:11;97771.09;;;20.49;64.57
20987;BME280;10652;50.306;8.570;2023-05-21T10:13:17;97768.03;;;20.53;64.49
20987;BME280;10652;50.306;8.570;2023-05-21T10:17:22;97763.09;;;20.68;63.80
20987;BME280;10652;50.306;8.570;2023-05-21T10:21:25;97753.81;;;20.91;63.04
20987;BME280;10652;50.306;8.570;2023-05-21T10:25:29;97749.00;;;21.04;63.64
20987;BME280;10652;50.306;8.570;2023-05-21T10:29:32;97742.84;;;20.94;62.82
20987;BME280;10652;50.306;8.570;2023-05-21T10:33:34;97742.28;;;21.00;63.83
20987;BME280;10652;50.306;8.570;2023-05-21T10:37:38;97731.03;;;21.07;62.80
20987;BME280;10652;50.306;8.570;2023-05-21T10:42:03;97739.72;;;21.09;63.57
20987;BME280;10652;50.306;8.570;2023-05-21T10:55:12;97742.78;;;21.87;58.97
20987;BME280;10652;50.306;8.570;2023-05-21T10:59:46;97730.81;;;22.09;58.87
20987;BME280;10652;50.306;8.570;2023-05-21T11:03:49;97726.47;;;22.26;58.14
20987;BME280;10652;50.306;8.570;2023-05-21T11:07:55;97731.22;;;22.32;57.87
20987;BME280;10652;50.306;8.570;2023-05-21T11:11:58;97728.84;;;22.47;55.89
20987;BME280;10652;50.306;8.570;2023-05-21T11:16:03;97723.41;;;22.56;55.64
20987;BME280;10652;50.306;8.570;2023-05-21T11:20:10;97724.06;;;22.94;54.23
20987;BME280;10652;50.306;8.570;2023-05-21T11:24:18;97719.25;;;22.79;54.64
20987;BME280;10652;50.306;8.570;2023-05-21T11:28:31;97715.25;;;22.84;55.01
20987;BME280;10652;50.306;8.570;2023-05-21T11:33:16;97714.38;;;23.01;54.47
20987;BME280;10652;50.306;8.570;2023-05-21T11:37:29;97711.66;;;22.93;54.44
20987;BME280;10652;50.306;8.570;2023-05-21T11:41:48;97703.41;;;22.86;55.55
20987;BME280;10652;50.306;8.570;2023-05-21T11:45:51;97707.81;;;22.95;54.24
20987;BME280;10652;50.306;8.570;2023-05-21T11:49:55;97705.81;;;23.23;52.87
20987;BME280;10652;50.306;8.570;2023-05-21T11:53:58;97693.69;;;23.11;53.23
20987;BME280;10652;50.306;8.570;2023-05-21T11:58:00;97696.78;;;23.24;51.48
20987;BME280;10652;50.306;8.570;2023-05-21T12:02:03;97706.66;;;23.23;52.30
20987;BME280;10652;50.306;8.570;2023-05-21T12:06:05;97700.13;;;23.26;48.99
20987;BME280;10652;50.306;8.570;2023-05-21T12:10:09;97707.41;;;23.42;47.91
20987;BME280;10652;50.306;8.570;2023-05-21T12:14:12;97707.13;;;23.53;45.67
20987;BME280;10652;50.306;8.570;2023-05-21T12:18:14;97700.84;;;23.70;45.47
20987;BME280;10652;50.306;8.570;2023-05-21T12:22:17;97698.91;;;23.96;44.50
20987;BME280;10652;50.306;8.570;2023-05-21T12:26:20;97692.78;;;24.36;45.45
20987;BME280;10652;50.306;8.570;2023-05-21T12:30:24;97709.41;;;24.64;44.18
20987;BME280;10652;50.306;8.570;2023-05-21T12:34:48;97701.84;;;24.60;43.63
20987;BME280;10652;50.306;8.570;2023-05-21T12:38:51;97709.22;;;24.90;43.71
20987;BME280;10652;50.306;8.570;2023-05-21T12:42:53;97703.50;;;24.77;43.06
20987;BME280;10652;50.306;8.570;2023-05-21T12:46:55;97704.53;;;24.68;43.92
20987;BME280;10652;50.306;8.570;2023-05-21T12:50:58;97703.34;;;24.70;42.56
20987;BME280;10652;50.306;8.570;2023-05-21T12:55:00;97694.28;;;24.55;42.45
20987;BME280;10652;50.306;8.570;2023-05-21T12:59:02;97691.09;;;24.60;43.24
20987;BME280;10652;50.306;8.570;2023-05-21T13:03:04;97691.28;;;24.66;42.65
20987;BME280;10652;50.306;8.570;2023-05-21T13:07:07;97686.91;;;24.97;42.47
20987;BME280;10652;50.306;8.570;2023-05-21T13:11:09;97677.63;;;25.00;41.80
20987;BME280;10652;50.306;8.570;2023-05-21T13:15:12;97681.09;;;25.25;41.68
20987;BME280;10652;50.306;8.570;2023-05-21T13:19:14;97677.97;;;25.05;41.71
20987;BME280;10652;50.306;8.570;2023-05-21T13:23:16;97685.53;;;24.53;41.85
20987;BME280;10652;50.306;8.570;2023-05-21T13:27:18;97666.59;;;24.38;42.38
20987;BME280;10652;50.306;8.570;2023-05-21T13:31:21;97671.28;;;24.61;42.85
20987;BME280;10652;50.306;8.570;2023-05-21T13:35:23;97668.06;;;24.89;42.72
20987;BME280;10652;50.306;8.570;2023-05-21T13:39:25;97667.38;;;25.12;41.62
20987;BME280;10652;50.306;8.570;2023-05-21T13:43:28;97679.00;;;24.55;41.61
20987;BME280;10652;50.306;8.570;2023-05-21T13:47:31;97663.91;;;24.22;42.62
20987;BME280;10652;50.306;8.570;2023-05-21T13:51:33;97679.50;;;24.35;42.48
20987;BME280;10652;50.306;8.570;2023-05-21T13:55:40;97662.25;;;24.29;41.82
20987;BME280;10652;50.306;8.570;2023-05-21T13:59:42;97656.88;;;24.29;41.26
20987;BME280;10652;50.306;8.570;2023-05-21T14:03:44;97662.91;;;24.31;41.40
20987;BME280;10652;50.306;8.570;2023-05-21T14:07:46;97659.56;;;24.29;42.20
20987;BME280;10652;50.306;8.570;2023-05-21T14:11:49;97664.25;;;24.43;43.26
20987;BME280;10652;50.306;8.570;2023-05-21T14:15:51;97652.47;;;24.69;42.31
20987;BME280;10652;50.306;8.570;2023-05-21T14:19:53;97644.72;;;24.82;41.50
20987;BME280;10652;50.306;8.570;2023-05-21T14:23:56;97649.44;;;24.96;41.23
20987;BME280;10652;50.306;8.570;2023-05-21T14:27:58;97659.53;;;24.86;40.64
20987;BME280;10652;50.306;8.570;2023-05-21T14:32:00;97646.25;;;24.76;41.36
20987;BME280;10652;50.306;8.570;2023-05-21T14:36:03;97648.44;;;24.73;39.86
20987;BME280;10652;50.306;8.570;2023-05-21T14:40:06;97643.88;;;24.81;41.31
20987;BME280;10652;50.306;8.570;2023-05-21T14:44:08;97652.78;;;24.98;39.92
20987;BME280;10652;50.306;8.570;2023-05-21T14:48:11;97658.31;;;24.80;40.05
20987;BME280;10652;50.306;8.570;2023-05-21T14:52:13;97658.50;;;24.79;40.39
20987;BME280;10652;50.306;8.570;2023-05-21T14:56:15;97650.78;;;24.84;40.09
20987;BME280;10652;50.306;8.570;2023-05-21T15:00:17;97654.16;;;24.86;39.26
20987;BME280;10652;50.306;8.570;2023-05-21T15:04:19;97649.44;;;24.88;38.89
20987;BME280;10652;50.306;8.570;2023-05-21T15:08:21;97654.50;;;24.75;39.31
20987;BME280;10652;50.306;8.570;2023-05-21T15:12:24;97653.13;;;24.79;39.27
20987;BME280;10652;50.306;8.570;2023-05-21T15:16:26;97659.19;;;24.73;39.19
20987;BME280;10652;50.306;8.570;2023-05-21T15:20:28;97658.50;;;24.79;39.29
20987;BME280;10652;50.306;8.570;2023-05-21T15:24:30;97650.94;;;24.82;40.09
20987;BME280;10652;50.306;8.570;2023-05-21T15:28:32;97651.44;;;24.94;39.75
20987;BME280;10652;50.306;8.570;2023-05-21T15:32:34;97646.78;;;24.88;38.52
20987;BME280;10652;50.306;8.570;2023-05-21T15:36:36;97642.72;;;24.92;38.71
20987;BME280;10652;50.306;8.570;2023-05-21T15:40:38;97635.63;;;25.07;38.67
20987;BME280;10652;50.306;8.570;2023-05-21T15:44:42;97628.84;;;25.19;38.62
20987;BME280;10652;50.306;8.570;2023-05-21T15:48:44;97627.78;;;25.36;39.13
20987;BME280;10652;50.306;8.570;2023-05-21T15:52:46;97614.94;;;25.47;38.40
20987;BME280;10652;50.306;8.570;2023-05-21T15:56:49;97626.16;;;25.66;39.32
20987;BME280;10652;50.306;8.570;2023-05-21T16:00:51;97621.84;;;25.49;37.32
20987;BME280;10652;50.306;8.570;2023-05-21T16:04:54;97611.09;;;25.41;38.55
20987;BME280;10652;50.306;8.570;2023-05-21T16:08:56;97620.00;;;25.50;39.01
20987;BME280;10652;50.306;8.570;2023-05-21T16:12:58;97609.00;;;25.28;38.87
20987;BME280;10652;50.306;8.570;2023-05-21T16:17:01;97613.34;;;25.29;39.01
20987;BME280;10652;50.306;8.570;2023-05-21T16:21:03;97623.13;;;25.22;38.51
20987;BME280;10652;50.306;8.570;2023-05-21T16:25:05;97616.38;;;25.34;39.37
20987;BME280;10652;50.306;8.570;2023-05-21T16:29:08;97618.00;;;25.35;38.52
20987;BME280;10652;50.306;8.570;2023-05-21T16:33:10;97619.00;;;25.42;38.99
20987;BME280;10652;50.306;8.570;2023-05-21T16:37:13;97621.75;;;25.34;39.38
20987;BME280;10652;50.306;8.570;2023-05-21T16:41:15;97621.38;;;25.37;38.52
20987;BME280;10652;50.306;8.570;2023-05-21T16:45:17;97607.56;;;25.40;38.23
20987;BME280;10652;50.306;8.570;2023-05-21T16:49:22;97613.97;;;25.39;39.14
20987;BME280;10652;50.306;8.570;2023-05-21T16:53:24;97620.38;;;25.30;38.26
20987;BME280;10652;50.306;8.570;2023-05-21T16:57:27;97625.72;;;24.99;37.50
20987;BME280;10652;50.306;8.570;2023-05-21T17:01:29;97616.88;;;24.75;38.55
20987;BME280;10652;50.306;8.570;2023-05-21T17:05:31;97619.25;;;24.62;38.24
20987;BME280;10652;50.306;8.570;2023-05-21T17:09:33;97630.34;;;24.42;38.34
20987;BME280;10652;50.306;8.570;2023-05-21T17:13:35;97620.56;;;24.17;38.86
20987;BME280;10652;50.306;8.570;2023-05-21T17:17:37;97626.28;;;23.98;39.36
20987;BME280;10652;50.306;8.570;2023-05-21T17:21:39;97639.69;;;23.90;39.85
20987;BME280;10652;50.306;8.570;2023-05-21T17:25:41;97633.31;;;23.83;40.11
20987;BME280;10652;50.306;8.570;2023-05-21T17:29:44;97635.97;;;23.75;40.48
20987;BME280;10652;50.306;8.570;2023-05-21T17:33:46;97629.44;;;23.69;40.77
20987;BME280;10652;50.306;8.570;2023-05-21T17:37:48;97632.44;;;23.66;40.87
20987;BME280;10652;50.306;8.570;2023-05-21T17:41:51;97635.09;;;23.58;41.39
20987;BME280;10652;50.306;8.570;2023-05-21T17:45:53;97631.84;;;23.46;41.23
20987;BME280;10652;50.306;8.570;2023-05-21T17:49:55;97641.19;;;23.34;41.67
20987;BME280;10652;50.306;8.570;2023-05-21T17:53:57;97638.78;;;23.23;44.29
20987;BME280;10652;50.306;8.570;2023-05-21T17:57:59;97639.59;;;23.07;45.30
20987;BME280;10652;50.306;8.570;2023-05-21T18:02:01;97634.81;;;22.93;44.79
20987;BME280;10652;50.306;8.570;2023-05-21T18:06:04;97627.00;;;22.82;44.55
20987;BME280;10652;50.306;8.570;2023-05-21T18:10:09;97631.09;;;22.68;44.73
20987;BME280;10652;50.306;8.570;2023-05-21T18:14:11;97636.88;;;22.56;45.15
20987;BME280;10652;50.306;8.570;2023-05-21T18:18:13;97624.91;;;22.42;47.71
20987;BME280;10652;50.306;8.570;2023-05-21T18:22:22;97638.84;;;22.28;49.74
20987;BME280;10652;50.306;8.570;2023-05-21T18:26:24;97630.81;;;22.10;49.78
20987;BME280;10652;50.306;8.570;2023-05-21T18:30:26;97639.69;;;21.93;50.62
20987;BME280;10652;50.306;8.570;2023-05-21T18:34:28;97643.03;;;21.77;51.28
20987;BME280;10652;50.306;8.570;2023-05-21T18:38:30;97633.25;;;21.51;52.64
20987;BME280;10652;50.306;8.570;2023-05-21T18:42:33;97635.06;;;21.23;53.71
20987;BME280;10652;50.306;8.570;2023-05-21T18:46:35;97634.03;;;21.06;55.13
20987;BME280;10652;50.306;8.570;2023-05-21T18:50:38;97636.31;;;20.91;55.33
20987;BME280;10652;50.306;8.570;2023-05-21T18:54:40;97631.47;;;20.77;55.95
20987;BME280;10652;50.306;8.570;2023-05-21T18:58:42;97635.25;;;20.65;56.31
20987;BME280;10652;50.306;8.570;2023-05-21T19:02:44;97643.84;;;20.49;57.60
20987;BME280;10652;50.306;8.570;2023-05-21T19:06:47;97645.56;;;20.31;58.59
20987;BME280;10652;50.306;8.570;2023-05-21T19:10:49;97646.16;;;20.15;60.28
20987;BME280;10652;50.306;8.570;2023-05-21T19:14:53;97654.19;;;20.06;60.86
20987;BME280;10652;50.306;8.570;2023-05-21T19:18:55;97655.31;;;19.94;60.04
20987;BME280;10652;50.306;8.570;2023-05-21T19:22:57;97655.94;;;19.86;61.18
20987;BME280;10652;50.306;8.570;2023-05-21T19:27:00;97653.56;;;19.73;61.75
20987;BME280;10652;50.306;8.570;2023-05-21T19:31:02;97658.28;;;19.51;62.85
20987;BME280;10652;50.306;8.570;2023-05-21T19:35:04;97657.94;;;19.15;63.87
20987;BME280;10652;50.306;8.570;2023-05-21T19:39:07;97664.72;;;18.78;65.51
20987;BME280;10652;50.306;8.570;2023-05-21T19:43:09;97669.63;;;18.52;66.50
20987;BME280;10652;50.306;8.570;2023-05-21T19:47:13;97664.19;;;18.33;67.96
20987;BME280;10652;50.306;8.570;2023-05-21T19:51:16;97671.34;;;18.21;68.92
20987;BME280;10652;50.306;8.570;2023-05-21T19:55:18;97679.00;;;18.15;69.99
20987;BME280;10652;50.306;8.570;2023-05-21T19:59:21;97678.78;;;18.07;70.71
20987;BME280;10652;50.306;8.570;2023-05-21T20:03:26;97680.53;;;17.85;71.40
20987;BME280;10652;50.306;8.570;2023-05-21T20:07:29;97682.91;;;17.68;72.19
20987;BME280;10652;50.306;8.570;2023-05-21T20:11:32;97678.59;;;17.56;73.01
20987;BME280;10652;50.306;8.570;2023-05-21T20:15:34;97680.78;;;17.50;73.60
20987;BME280;10652;50.306;8.570;2023-05-21T20:19:36;97686.56;;;17.44;73.40
20987;BME280;10652;50.306;8.570;2023-05-21T20:23:39;97686.84;;;17.30;73.79
20987;BME280;10652;50.306;8.570;2023-05-21T20:27:41;97692.25;;;17.18;75.29
20987;BME280;10652;50.306;8.570;2023-05-21T20:31:43;97687.56;;;17.10;75.67
20987;BME280;10652;50.306;8.570;2023-05-21T20:35:45;97697.22;;;16.89;76.40
20987;BME280;10652;50.306;8.570;2023-05-21T20:39:47;97701.06;;;16.74;77.94
20987;BME280;10652;50.306;8.570;2023-05-21T20:43:49;97702.59;;;16.65;78.74
20987;BME280;10652;50.306;8.570;2023-05-21T20:47:53;97698.84;;;16.56;78.69
20987;BME280;10652;50.306;8.570;2023-05-21T20:51:58;97695.44;;;16.43;78.86
20987;BME280;10652;50.306;8.570;2023-05-21T20:56:01;97687.66;;;16.29;79.73
20987;BME280;10652;50.306;8.570;2023-05-21T21:00:03;97690.06;;;16.32;80.49
20987;BME280;10652;50.306;8.570;2023-05-21T21:04:06;97681.41;;;16.30;80.08
20987;BME280;10652;50.306;8.570;2023-05-21T21:08:08;97689.94;;;16.22;80.97
20987;BME280;10652;50.306;8.570;2023-05-21T21:12:10;97689.22;;;16.20;80.80
20987;BME280;10652;50.306;8.570;2023-05-21T21:16:27;97691.47;;;16.14;81.06
20987;BME280;10652;50.306;8.570;2023-05-21T21:20:29;97693.41;;;16.12;81.15
20987;BME280;10652;50.306;8.570;2023-05-21T21:24:31;97696.09;;;15.99;81.50
20987;BME280;10652;50.306;8.570;2023-05-21T21:28:33;97693.75;;;15.84;82.64
20987;BME280;10652;50.306;8.570;2023-05-21T21:32:35;97692.69;;;15.86;82.87
20987;BME280;10652;50.306;8.570;2023-05-21T21:36:38;97693.25;;;15.78;83.43
20987;BME280;10652;50.306;8.570;2023-05-21T21:40:40;97688.72;;;15.68;84.44
20987;BME280;10652;50.306;8.570;2023-05-21T21:44:42;97691.28;;;15.69;84.63